Hlavní strana
METAR-TAF:

METAR-TAF

Letiště :

Sevilla, Španělsko

zeměpisná šířka: 37-25N, zeměpisná délka: 005-54W, výška: 34 m

Aktuální stav počasí

Zpráva byla vytvořena před 21 minutami, v 10:30 UTC
Západní vítr 1 kt
Teplota 19°C
Vlhkost vzduchu 73%
Tlak 1022 hPa
Viditelnost 10 km a více
Polojasno ve výšce 2000 ft
Polojasno ve výšce 3900 ft

METAR: LEZL 101030Z AUTO 27001KT 9999 SCT020 SCT039 19/14 Q1022

Čas: 12:51 (10:51 UTC)

Předpověď počasí

Zpráva byla vytvořena před 2 hodinami a 51 minutami, v 08:00 UTC
Předpověď platná od 10 v 09 UTC do 11 v 09 UTC
Východní vítr 4 kt
Viditelnost 10 km a více
Oblačno až skoro zataženo ve výšce 3500 ft

TAF: LEZL 100800Z 1009/1109 09004KT 9999 BKN035 TX21/1015Z TN14/1106Z

Stav a předpovědi počasí z více než 4 000 letišť (zprávy METAR a TAF).

Červené a žluté tečky na mapě představují dostupné meteorologické stanice.

Když kurzor umístíte na tečku, zobrazí se název stanice.

Pak kliknutím zobrazíte stav a předpověď počasí.

Chcete-li změnit mapu, kliknutím na zelené tlačítko se znaménkem +mapu přiblížíte, kliknutím na zelené tlačítko se znaménkem – mapu oddálíte a kliknutím na zelené šipky přejdete na sousední mapy.


METAR-TAF: